Time;durP1;ratioP1;P1;durP2;ratioP2;P2;SDS_P1;SDS_P2;PMS_P1;PMS_P2;Temp;Humidity;BMP_temperature;BMP_pressure;BME280_temperature;BME280_humidity;BME280_pressure;Samples;Min_cycle;Max_cycle;Signal;HPM_P1;HPM_P2
2021/03/14 00:00:48;;;;;;;31.83;5.03;;;4.20;99.90;;;;;;5051656;28;20036;-79
2021/03/14 00:03:16;;;;;;;33.65;5.47;;;4.10;99.90;;;;;;5051877;28;20033;-79
2021/03/14 00:05:43;;;;;;;24.08;5.55;;;4.20;99.90;;;;;;5050775;28;20420;-78
2021/03/14 00:08:09;;;;;;;63.13;6.13;;;4.20;99.90;;;;;;5051586;28;20025;-79
2021/03/14 00:10:36;;;;;;;40.47;4.40;;;4.20;99.90;;;;;;5051433;28;20029;-79
2021/03/14 00:13:03;;;;;;;21.55;4.00;;;4.10;99.90;;;;;;5051777;28;20025;-79
2021/03/14 00:15:29;;;;;;;34.70;4.78;;;4.10;99.90;;;;;;5050642;28;20025;-79
2021/03/14 00:17:54;;;;;;;27.63;3.60;;;4.10;99.90;;;;;;5033857;28;20036;-80
2021/03/14 00:20:20;;;;;;;16.40;3.38;;;4.10;99.90;;;;;;5051665;28;20021;-78
2021/03/14 00:22:46;;;;;;;23.42;4.18;;;4.10;99.90;;;;;;5051297;28;20035;-79
2021/03/14 00:25:12;;;;;;;30.50;4.55;;;4.00;99.90;;;;;;5032672;28;20025;-79
2021/03/14 00:27:38;;;;;;;12.80;3.17;;;4.10;99.90;;;;;;5051507;28;20032;-79
2021/03/14 00:30:06;;;;;;;24.05;4.47;;;4.00;99.90;;;;;;5051220;28;20029;-78
2021/03/14 00:32:32;;;;;;;20.27;3.20;;;4.00;99.90;;;;;;5051513;28;20090;-78
2021/03/14 00:34:58;;;;;;;24.80;3.33;;;4.00;99.90;;;;;;5050616;28;20080;-78
2021/03/14 00:37:23;;;;;;;13.90;3.17;;;4.00;99.90;;;;;;5050625;28;20036;-79
2021/03/14 00:39:49;;;;;;;26.90;3.20;;;4.00;99.90;;;;;;5051063;28;20496;-79
2021/03/14 00:42:14;;;;;;;23.80;2.42;;;4.00;99.90;;;;;;5051082;28;20079;-79
2021/03/14 00:44:40;;;;;;;14.63;2.92;;;3.90;99.90;;;;;;5050339;28;20029;-78
2021/03/14 00:47:06;;;;;;;17.13;2.67;;;4.00;99.90;;;;;;5033477;28;20044;-79
2021/03/14 00:49:31;;;;;;;10.55;2.53;;;3.90;99.90;;;;;;5033532;28;20083;-79
2021/03/14 00:51:57;;;;;;;14.77;3.38;;;4.00;99.90;;;;;;5050978;28;20025;-79
2021/03/14 00:54:23;;;;;;;19.73;3.28;;;4.00;99.90;;;;;;5049335;28;20413;-80
2021/03/14 00:56:48;;;;;;;12.10;2.45;;;4.00;99.90;;;;;;5051280;28;20560;-80
2021/03/14 00:59:14;;;;;;;10.50;3.10;;;4.00;99.90;;;;;;5037233;28;20053;-80
2021/03/14 01:01:39;;;;;;;11.05;3.08;;;4.00;99.90;;;;;;5055334;28;20032;-80
2021/03/14 01:04:05;;;;;;;17.95;3.65;;;4.00;99.90;;;;;;5054390;28;20025;-79
2021/03/14 01:06:30;;;;;;;15.32;3.33;;;4.00;99.90;;;;;;5037385;28;20083;-79
2021/03/14 01:08:56;;;;;;;16.30;4.20;;;4.00;99.90;;;;;;5055213;28;20054;-80
2021/03/14 01:11:22;;;;;;;16.30;5.82;;;4.00;99.90;;;;;;5054862;28;20028;-80
2021/03/14 01:13:48;;;;;;;17.42;5.15;;;4.00;99.90;;;;;;5054518;28;20106;-80
2021/03/14 01:16:14;;;;;;;15.35;5.90;;;4.00;99.90;;;;;;5055094;28;20052;-80
2021/03/14 01:18:39;;;;;;;7.95;4.85;;;4.00;99.90;;;;;;5055080;28;20029;-80
2021/03/14 01:21:05;;;;;;;12.23;5.97;;;3.90;99.90;;;;;;5054432;28;20029;-79
2021/03/14 01:23:30;;;;;;;15.07;5.20;;;4.00;99.90;;;;;;5054998;28;20104;-80
2021/03/14 01:25:56;;;;;;;11.50;5.32;;;3.90;99.90;;;;;;5053894;28;20112;-81
2021/03/14 01:28:22;;;;;;;16.17;6.95;;;3.90;99.90;;;;;;5054902;28;20115;-80
2021/03/14 01:30:47;;;;;;;22.00;8.05;;;3.90;99.90;;;;;;5054487;28;20056;-80
2021/03/14 01:33:13;;;;;;;15.32;7.18;;;3.80;99.90;;;;;;5054823;28;20032;-80
2021/03/14 01:35:39;;;;;;;18.02;7.18;;;3.80;99.90;;;;;;5036184;28;20032;-79
2021/03/14 01:38:04;;;;;;;19.83;8.60;;;3.80;99.90;;;;;;5054636;28;20386;-79
2021/03/14 01:40:30;;;;;;;18.33;7.10;;;3.80;99.90;;;;;;5036448;28;20029;-79
2021/03/14 01:42:56;;;;;;;18.55;8.20;;;3.80;99.90;;;;;;5036246;28;20039;-81
2021/03/14 01:45:22;;;;;;;19.10;8.63;;;3.70;99.90;;;;;;5053924;28;20025;-79
2021/03/14 01:47:50;;;;;;;16.55;8.27;;;3.70;99.90;;;;;;5054615;28;20021;-81
2021/03/14 01:50:22;;;;;;;18.90;9.77;;;3.70;99.90;;;;;;5036047;28;20028;-79
2021/03/14 01:52:48;;;;;;;14.38;8.27;;;3.60;99.90;;;;;;5054530;28;20067;-81
2021/03/14 01:55:15;;;;;;;21.02;9.65;;;3.60;99.90;;;;;;5035822;28;20033;-80
2021/03/14 01:57:42;;;;;;;18.15;8.15;;;3.70;99.90;;;;;;5035952;28;20051;-81
2021/03/14 02:00:10;;;;;;;20.08;10.48;;;3.70;99.90;;;;;;5053643;28;20078;-81
2021/03/14 02:02:36;;;;;;;26.05;10.40;;;3.60;99.90;;;;;;5036327;28;20032;-80
2021/03/14 02:05:04;;;;;;;18.90;10.63;;;3.70;99.90;;;;;;5035110;28;20036;-81
2021/03/14 02:07:31;;;;;;;23.33;10.63;;;3.70;99.90;;;;;;5054165;28;20017;-80
2021/03/14 02:09:57;;;;;;;23.45;10.57;;;3.70;99.90;;;;;;5052429;28;20056;-81
2021/03/14 02:12:25;;;;;;;21.33;10.88;;;3.70;99.90;;;;;;5054043;28;20048;-81
2021/03/14 02:14:56;;;;;;;34.22;10.68;;;3.60;99.90;;;;;;5053144;28;20067;-81
2021/03/14 02:17:26;;;;;;;23.95;10.38;;;3.60;99.90;;;;;;5053934;28;20032;-81
2021/03/14 02:20:06;;;;;;;21.60;9.88;;;3.60;99.90;;;;;;5035885;28;20603;-81
2021/03/14 02:22:32;;;;;;;27.15;10.43;;;3.60;99.90;;;;;;5033757;28;20072;-81
2021/03/14 02:25:00;;;;;;;28.90;10.63;;;3.60;99.90;;;;;;5020563;28;20639;-81
2021/03/14 02:27:27;;;;;;;24.80;9.45;;;3.60;99.90;;;;;;5035982;28;20040;-81
2021/03/14 02:29:54;;;;;;;17.40;9.82;;;3.60;99.90;;;;;;5035422;28;20556;-81
2021/03/14 02:32:21;;;;;;;20.65;9.60;;;3.60;99.90;;;;;;5053380;28;20025;-81
2021/03/14 02:34:53;;;;;;;24.58;8.25;;;3.60;99.90;;;;;;5053102;28;20020;-81
2021/03/14 02:37:21;;;;;;;22.23;8.40;;;3.60;99.90;;;;;;5053450;28;20044;-80
2021/03/14 02:39:47;;;;;;;21.90;8.30;;;3.50;99.90;;;;;;5035244;28;20028;-80
2021/03/14 02:42:14;;;;;;;25.90;8.60;;;3.50;99.90;;;;;;5053290;28;20079;-80
2021/03/14 02:44:44;;;;;;;23.75;9.57;;;3.50;99.90;;;;;;5034593;28;20029;-80
2021/03/14 02:47:10;;;;;;;27.17;8.82;;;3.50;99.90;;;;;;5053350;28;20025;-80
2021/03/14 02:49:37;;;;;;;29.63;9.07;;;3.40;99.90;;;;;;5053336;28;20570;-81
2021/03/14 02:52:06;;;;;;;23.90;8.60;;;3.40;99.90;;;;;;5052886;28;20493;-81
2021/03/14 02:54:37;;;;;;;19.27;8.68;;;3.30;99.90;;;;;;5052313;28;20036;-80
2021/03/14 02:57:04;;;;;;;19.38;8.93;;;3.40;99.90;;;;;;5053125;28;20456;-80
2021/03/14 02:59:30;;;;;;;17.33;8.35;;;3.30;99.90;;;;;;5034972;28;20477;-81
2021/03/14 03:01:57;;;;;;;17.17;7.25;;;3.30;99.90;;;;;;5052878;28;20393;-80
2021/03/14 03:04:25;;;;;;;17.25;6.80;;;3.20;99.90;;;;;;5052410;28;20025;-81
2021/03/14 03:06:55;;;;;;;15.27;6.95;;;3.30;99.90;;;;;;5052883;28;20028;-80
2021/03/14 03:09:21;;;;;;;14.80;6.68;;;3.30;99.90;;;;;;5052810;28;20036;-80
2021/03/14 03:11:52;;;;;;;21.50;6.82;;;3.30;99.90;;;;;;5052853;28;20023;-81
2021/03/14 03:14:22;;;;;;;14.18;6.43;;;3.30;99.90;;;;;;5034205;28;20025;-80
2021/03/14 03:16:50;;;;;;;14.18;5.57;;;3.30;99.90;;;;;;5052941;28;20051;-81
2021/03/14 03:19:17;;;;;;;19.15;7.15;;;3.30;99.90;;;;;;5052832;28;20025;-81
2021/03/14 03:21:44;;;;;;;18.02;7.22;;;3.30;99.90;;;;;;5051550;28;20029;-80
2021/03/14 03:24:11;;;;;;;11.60;5.68;;;3.40;99.90;;;;;;5050818;28;20104;-81
2021/03/14 03:26:42;;;;;;;18.02;5.82;;;3.40;99.90;;;;;;5052155;28;20039;-80
2021/03/14 03:29:08;;;;;;;9.10;5.78;;;3.40;99.90;;;;;;5052462;28;20021;-80
2021/03/14 03:31:35;;;;;;;14.52;5.43;;;3.40;99.90;;;;;;5052348;28;20032;-80
2021/03/14 03:34:00;;;;;;;9.13;5.03;;;3.40;99.90;;;;;;5051940;28;20501;-81
2021/03/14 03:36:26;;;;;;;12.25;5.82;;;3.40;99.90;;;;;;5052248;28;20029;-80
2021/03/14 03:38:51;;;;;;;12.20;5.63;;;3.50;99.90;;;;;;5052363;28;20021;-81
2021/03/14 03:41:17;;;;;;;16.02;6.00;;;3.50;99.90;;;;;;5034057;28;20120;-81
2021/03/14 03:43:44;;;;;;;13.80;5.90;;;3.50;99.90;;;;;;5051063;28;20025;-81
2021/03/14 03:46:12;;;;;;;18.50;6.00;;;3.50;99.90;;;;;;5052306;28;20025;-81
2021/03/14 03:48:48;;;;;;;12.55;5.80;;;3.50;99.90;;;;;;5052085;28;20472;-81
2021/03/14 03:51:20;;;;;;;13.00;6.55;;;3.50;99.90;;;;;;5032004;28;20387;-82
2021/03/14 03:53:47;;;;;;;11.45;5.30;;;3.60;99.90;;;;;;5014029;28;20112;-81
2021/03/14 03:56:13;;;;;;;12.50;5.07;;;3.60;99.90;;;;;;5047321;28;20025;-81
2021/03/14 03:58:40;;;;;;;13.15;4.63;;;3.50;99.90;;;;;;5052072;28;20481;-81
2021/03/14 04:01:09;;;;;;;12.52;3.95;;;3.50;99.90;;;;;;5051590;28;20111;-80
2021/03/14 04:03:38;;;;;;;10.60;4.38;;;3.50;99.90;;;;;;5034059;28;20033;-81
2021/03/14 04:06:04;;;;;;;19.58;4.97;;;3.50;99.90;;;;;;5033649;28;20028;-81
2021/03/14 04:08:31;;;;;;;18.55;4.32;;;3.60;99.90;;;;;;5051970;28;20021;-81
2021/03/14 04:10:58;;;;;;;25.75;4.97;;;3.60;99.90;;;;;;5033623;28;20040;-81
2021/03/14 04:13:25;;;;;;;19.60;5.05;;;3.70;99.90;;;;;;5051860;28;20032;-80
2021/03/14 04:15:51;;;;;;;10.50;4.07;;;3.70;99.90;;;;;;5051245;28;20072;-81
2021/03/14 04:18:18;;;;;;;19.77;4.93;;;3.70;99.90;;;;;;5051864;28;20065;-81
2021/03/14 04:20:44;;;;;;;26.75;5.38;;;3.80;99.90;;;;;;5032550;28;20538;-81
2021/03/14 04:23:14;;;;;;;27.17;5.38;;;3.90;99.90;;;;;;5051952;28;20139;-81
2021/03/14 04:25:41;;;;;;;18.98;4.78;;;3.90;99.90;;;;;;5032945;28;20120;-81
2021/03/14 04:28:07;;;;;;;28.23;5.25;;;3.90;99.90;;;;;;5051764;28;20025;-81
2021/03/14 04:30:34;;;;;;;20.83;5.28;;;3.90;99.90;;;;;;5051310;28;20023;-80
2021/03/14 04:33:00;;;;;;;23.48;5.82;;;4.00;99.90;;;;;;5032983;28;20056;-81
2021/03/14 04:35:27;;;;;;;28.60;6.40;;;4.00;99.90;;;;;;5032913;28;20032;-81
2021/03/14 04:37:54;;;;;;;28.42;5.05;;;4.00;99.90;;;;;;5033203;28;20028;-80
2021/03/14 04:40:21;;;;;;;29.80;6.05;;;4.00;99.90;;;;;;5033308;28;20032;-81
2021/03/14 04:42:48;;;;;;;29.13;5.78;;;4.10;99.90;;;;;;5051572;28;20025;-81
2021/03/14 04:45:15;;;;;;;28.20;5.85;;;4.10;99.90;;;;;;5050701;28;20028;-80
2021/03/14 04:47:42;;;;;;;36.53;6.10;;;4.10;99.90;;;;;;5051480;28;20362;-81
2021/03/14 04:50:11;;;;;;;47.28;6.50;;;4.10;99.90;;;;;;5032890;28;20082;-80
2021/03/14 04:52:38;;;;;;;26.40;5.82;;;4.10;99.90;;;;;;5033613;28;20021;-81
2021/03/14 04:55:08;;;;;;;40.85;6.22;;;4.20;99.90;;;;;;5050414;28;20547;-81
2021/03/14 04:57:37;;;;;;;31.00;6.93;;;4.10;99.90;;;;;;5051368;28;20074;-81
2021/03/14 05:00:08;;;;;;;33.65;5.72;;;4.10;99.90;;;;;;5050923;28;20082;-81
2021/03/14 05:02:35;;;;;;;29.60;5.18;;;4.10;99.90;;;;;;5051260;28;20560;-81
2021/03/14 05:05:02;;;;;;;46.78;6.90;;;4.20;99.90;;;;;;5032689;28;20033;-81
2021/03/14 05:07:29;;;;;;;33.17;6.55;;;4.20;99.90;;;;;;5033403;28;20748;-81
2021/03/14 05:09:58;;;;;;;45.53;5.63;;;4.20;99.90;;;;;;5050301;28;20047;-80
2021/03/14 05:12:24;;;;;;;35.55;6.47;;;4.20;99.90;;;;;;5050882;28;20033;-81
2021/03/14 05:14:49;;;;;;;29.58;5.82;;;4.20;99.90;;;;;;5050608;28;20025;-81
2021/03/14 05:17:16;;;;;;;35.42;6.20;;;4.20;99.90;;;;;;5051173;28;20040;-81
2021/03/14 05:19:42;;;;;;;29.27;6.70;;;4.20;99.90;;;;;;5032686;28;20496;-81
2021/03/14 05:22:08;;;;;;;48.28;7.20;;;4.20;99.90;;;;;;5051051;28;20048;-81
2021/03/14 05:24:34;;;;;;;32.00;5.95;;;4.10;99.90;;;;;;5050028;28;20033;-82
2021/03/14 05:27:02;;;;;;;42.50;6.75;;;4.00;99.90;;;;;;5050991;28;20025;-81
2021/03/14 05:29:29;;;;;;;30.88;6.50;;;3.90;99.90;;;;;;5050928;28;20051;-80
2021/03/14 05:31:57;;;;;;;31.55;7.78;;;3.90;99.90;;;;;;5051015;28;20128;-82
2021/03/14 05:34:24;;;;;;;42.47;6.70;;;3.90;99.90;;;;;;5032791;28;20018;-81
2021/03/14 05:36:50;;;;;;;43.30;8.80;;;3.80;99.90;;;;;;5050963;28;20104;-81
2021/03/14 05:39:16;;;;;;;48.28;9.93;;;3.70;99.90;;;;;;5032983;28;20025;-81
2021/03/14 05:41:43;;;;;;;41.33;7.50;;;3.70;99.90;;;;;;5050530;28;20120;-81
2021/03/14 05:44:10;;;;;;;35.33;7.10;;;3.80;99.90;;;;;;5051907;28;20064;-81
2021/03/14 05:46:36;;;;;;;40.70;7.55;;;3.80;99.90;;;;;;5054550;28;20047;-81
2021/03/14 05:49:04;;;;;;;42.35;8.00;;;3.70;99.90;;;;;;5054418;28;20485;-81
2021/03/14 05:51:32;;;;;;;34.45;7.05;;;3.60;99.90;;;;;;5054304;28;20845;-81
2021/03/14 05:53:59;;;;;;;46.85;6.50;;;3.60;99.90;;;;;;5035670;28;20515;-81
2021/03/14 05:56:26;;;;;;;31.35;6.78;;;3.60;99.90;;;;;;5054212;28;20116;-81
2021/03/14 05:58:54;;;;;;;63.35;8.43;;;3.60;99.90;;;;;;5054438;28;20723;-80
2021/03/14 06:01:23;;;;;;;44.60;8.10;;;3.60;99.90;;;;;;5053742;28;20032;-81
2021/03/14 06:03:50;;;;;;;45.05;8.65;;;3.50;99.90;;;;;;5053601;28;20025;-80
2021/03/14 06:06:16;;;;;;;57.85;8.50;;;3.50;99.90;;;;;;5036380;28;20029;-81
2021/03/14 06:08:42;;;;;;;42.90;7.80;;;3.40;99.90;;;;;;5036211;28;20048;-80
2021/03/14 06:11:09;;;;;;;55.72;9.73;;;3.40;99.90;;;;;;5053886;28;20389;-81
2021/03/14 06:13:35;;;;;;;46.00;7.63;;;3.40;99.90;;;;;;5054026;28;20021;-81
2021/03/14 06:16:02;;;;;;;47.50;8.07;;;3.30;99.90;;;;;;5053646;28;20491;-81
2021/03/14 06:18:27;;;;;;;63.22;8.77;;;3.30;99.90;;;;;;5054106;28;20025;-81
2021/03/14 06:20:54;;;;;;;53.72;9.73;;;3.40;99.90;;;;;;5053487;28;20032;-82
2021/03/14 06:23:21;;;;;;;56.53;8.85;;;3.40;99.90;;;;;;5053817;28;20025;-81
2021/03/14 06:26:11;;;;;;;65.90;8.98;;;3.60;99.90;;;;;;5052907;28;20116;-80
2021/03/14 06:28:37;;;;;;;36.25;8.65;;;3.70;99.90;;;;;;5053897;28;20559;-82
2021/03/14 06:31:16;;;;;;;49.15;9.05;;;3.80;99.90;;;;;;5035670;28;20021;-81
2021/03/14 06:33:43;;;;;;;43.63;8.70;;;3.80;99.90;;;;;;5053201;28;20021;-81
2021/03/14 06:36:13;;;;;;;59.80;9.77;;;3.90;99.90;;;;;;5053717;28;20047;-81
2021/03/14 06:38:39;;;;;;;65.70;8.98;;;4.00;99.90;;;;;;5035744;28;20067;-81
2021/03/14 06:41:04;;;;;;;64.82;12.80;;;4.00;99.90;;;;;;5035431;28;20125;-81
2021/03/14 06:43:35;;;;;;;48.90;9.27;;;4.10;99.90;;;;;;5035748;28;20500;-81
2021/03/14 06:46:01;;;;;;;57.17;10.55;;;4.20;99.90;;;;;;5053094;28;20055;-80
2021/03/14 06:48:28;;;;;;;56.63;13.10;;;4.30;99.90;;;;;;5035504;28;20021;-81
2021/03/14 06:50:54;;;;;;;58.38;10.48;;;4.40;99.90;;;;;;5035237;28;20116;-80
2021/03/14 06:53:24;;;;;;;53.25;12.30;;;4.40;99.90;;;;;;5044238;28;20520;-79
2021/03/14 06:55:52;;;;;;;65.50;13.20;;;4.40;99.90;;;;;;5048834;28;20033;-80
2021/03/14 06:58:29;;;;;;;67.22;10.80;;;4.40;99.90;;;;;;5047488;28;20155;-80
2021/03/14 07:01:17;;;;;;;60.42;11.70;;;4.50;99.90;;;;;;5032640;28;20032;-80
2021/03/14 07:03:50;;;;;;;52.97;10.40;;;4.50;99.90;;;;;;5049077;28;20049;-80
2021/03/14 07:06:20;;;;;;;66.60;10.73;;;4.50;99.90;;;;;;5049797;28;20085;-80
2021/03/14 07:08:48;;;;;;;85.70;11.82;;;4.40;99.90;;;;;;5041341;28;20083;-80
2021/03/14 07:11:35;;;;;;;79.75;13.93;;;4.30;99.90;;;;;;5053952;28;20531;-80
2021/03/14 07:14:03;;;;;;;57.22;9.85;;;4.30;99.90;;;;;;5048869;28;20032;-80
2021/03/14 07:16:49;;;;;;;52.78;9.82;;;4.40;99.90;;;;;;5045474;28;20052;-81
2021/03/14 07:19:29;;;;;;;72.95;10.70;;;4.50;99.90;;;;;;5049534;28;20563;-80
2021/03/14 07:21:57;;;;;;;60.97;8.65;;;4.70;99.90;;;;;;5049508;28;20502;-79
2021/03/14 07:24:31;;;;;;;65.90;10.18;;;4.90;99.90;;;;;;5047457;28;20021;-81
2021/03/14 07:26:57;;;;;;;42.53;7.63;;;5.20;99.90;;;;;;5039045;28;20087;-79
2021/03/14 07:29:28;;;;;;;60.00;8.02;;;5.40;99.90;;;;;;5049320;28;20029;-82
2021/03/14 07:31:55;;;;;;;45.05;6.95;;;5.40;99.90;;;;;;5039782;28;20032;-80
2021/03/14 07:34:20;;;;;;;34.80;6.30;;;5.40;99.90;;;;;;5048605;28;20017;-80
2021/03/14 07:36:46;;;;;;;41.15;5.82;;;5.40;99.90;;;;;;5049262;28;20115;-81
2021/03/14 07:39:12;;;;;;;36.50;5.95;;;5.40;99.90;;;;;;5049526;28;20477;-80
2021/03/14 07:41:38;;;;;;;38.17;5.95;;;5.30;99.90;;;;;;5033292;28;20037;-80
2021/03/14 07:44:06;;;;;;;45.35;6.95;;;5.20;99.90;;;;;;5047915;28;20037;-81
2021/03/14 07:46:32;;;;;;;37.17;5.45;;;5.20;99.90;;;;;;5047155;28;20032;-79
2021/03/14 07:49:00;;;;;;;37.00;6.78;;;5.20;99.90;;;;;;5051388;28;20025;-82
2021/03/14 07:51:26;;;;;;;33.40;5.43;;;5.20;99.90;;;;;;5039663;28;20036;-81
2021/03/14 07:53:53;;;;;;;35.45;5.68;;;5.30;99.90;;;;;;5051282;28;20051;-82
2021/03/14 07:56:19;;;;;;;30.17;4.75;;;5.50;99.90;;;;;;5033813;28;20067;-81
2021/03/14 07:58:54;;;;;;;17.33;4.65;;;5.70;99.90;;;;;;5052172;28;20109;-81
2021/03/14 08:01:24;;;;;;;22.33;4.15;;;5.80;99.90;;;;;;5033645;28;20171;-81
2021/03/14 08:03:50;;;;;;;25.92;4.07;;;5.90;99.90;;;;;;5051251;28;20029;-81
2021/03/14 08:06:16;;;;;;;21.92;3.97;;;6.10;99.90;;;;;;5033791;28;20021;-82
2021/03/14 08:08:41;;;;;;;32.35;4.78;;;6.20;99.90;;;;;;5052129;28;20013;-82
2021/03/14 08:11:22;;;;;;;31.90;3.30;;;6.20;99.90;;;;;;5051478;28;20102;-80
2021/03/14 08:13:47;;;;;;;21.50;3.53;;;6.40;99.90;;;;;;5051134;28;20033;-80
2021/03/14 08:16:14;;;;;;;22.92;3.60;;;6.50;99.90;;;;;;5033995;28;20025;-80
2021/03/14 08:19:12;;;;;;;16.70;3.40;;;6.70;99.90;;;;;;5051774;28;20100;-79
2021/03/14 08:21:39;;;;;;;32.65;4.90;;;6.60;99.90;;;;;;5051077;28;20452;-80
2021/03/14 08:24:06;;;;;;;19.58;3.42;;;6.70;99.90;;;;;;5050842;28;20032;-80
2021/03/14 08:26:34;;;;;;;30.05;5.00;;;6.70;99.90;;;;;;5051357;28;20025;-80
2021/03/14 08:29:10;;;;;;;24.95;4.45;;;6.80;99.90;;;;;;5051576;28;20082;-80
2021/03/14 08:31:40;;;;;;;35.30;4.35;;;6.70;99.90;;;;;;5051447;28;20431;-82
2021/03/14 08:34:08;;;;;;;25.92;4.18;;;6.70;99.90;;;;;;5050562;28;20031;-82
2021/03/14 08:36:41;;;;;;;13.98;3.13;;;6.70;99.90;;;;;;5051571;28;20060;-82
2021/03/14 08:39:19;;;;;;;27.33;4.03;;;6.60;99.90;;;;;;5051372;28;20071;-81
2021/03/14 08:41:51;;;;;;;26.65;3.40;;;6.50;99.90;;;;;;5051073;28;20037;-82
2021/03/14 08:44:43;;;;;;;29.25;3.95;;;6.50;99.90;;;;;;5032876;28;20029;-81
2021/03/14 08:47:13;;;;;;;31.83;3.70;;;6.60;99.90;;;;;;5051435;28;20044;-82
2021/03/14 08:49:46;;;;;;;25.40;3.95;;;6.60;99.90;;;;;;5051371;28;20039;-82
2021/03/14 08:52:12;;;;;;;33.25;4.53;;;6.60;99.90;;;;;;5050618;28;20032;-82
2021/03/14 08:54:40;;;;;;;33.05;4.13;;;6.60;99.90;;;;;;5050376;28;20021;-82
2021/03/14 08:57:09;;;;;;;41.40;4.68;;;6.60;99.90;;;;;;5051246;28;20497;-82
2021/03/14 08:59:35;;;;;;;38.35;4.53;;;6.70;99.90;;;;;;5051127;28;20585;-83
2021/03/14 09:02:03;;;;;;;37.67;4.65;;;6.70;99.90;;;;;;5050992;28;20033;-81
2021/03/14 09:04:34;;;;;;;26.77;4.00;;;6.70;99.90;;;;;;5032573;28;20029;-82
2021/03/14 09:07:06;;;;;;;40.20;5.88;;;6.60;99.90;;;;;;5033305;28;20488;-81
2021/03/14 09:09:33;;;;;;;38.65;5.43;;;6.50;99.90;;;;;;5033012;28;20060;-81
2021/03/14 09:12:04;;;;;;;46.35;7.55;;;6.40;99.90;;;;;;5050749;28;20080;-81
2021/03/14 09:14:46;;;;;;;34.22;4.03;;;6.30;99.90;;;;;;5050549;28;20025;-81
2021/03/14 09:17:22;;;;;;;36.72;4.70;;;6.50;99.90;;;;;;5051040;28;20440;-81
2021/03/14 09:19:55;;;;;;;36.60;5.20;;;6.70;99.90;;;;;;5053874;28;20020;-81
2021/03/14 09:22:22;;;;;;;48.97;5.82;;;6.80;99.90;;;;;;5017334;28;20366;-80
2021/03/14 09:25:02;;;;;;;33.47;4.65;;;7.00;99.90;;;;;;5053067;28;20017;-81
2021/03/14 09:27:28;;;;;;;35.10;6.03;;;7.00;99.90;;;;;;5055135;28;20033;-82
2021/03/14 09:30:23;;;;;;;41.95;5.07;;;7.20;99.90;;;;;;5036874;28;20040;-82
2021/03/14 09:33:01;;;;;;;32.40;5.57;;;7.50;99.90;;;;;;5009564;28;20065;-81
2021/03/14 09:35:34;;;;;;;40.08;4.35;;;7.60;99.90;;;;;;5034323;28;20025;-82
2021/03/14 09:38:01;;;;;;;23.30;4.57;;;7.60;99.90;;;;;;5034936;28;20049;-83
2021/03/14 09:40:42;;;;;;;26.23;4.85;;;7.60;99.90;;;;;;5016883;28;20375;-83
2021/03/14 09:43:28;;;;;;;45.03;4.97;;;7.50;99.90;;;;;;5017027;28;20038;-84
2021/03/14 09:45:58;;;;;;;43.15;4.85;;;7.60;99.90;;;;;;5016263;28;20406;-83
2021/03/14 09:48:28;;;;;;;39.65;4.53;;;7.50;99.90;;;;;;5034595;28;20017;-83
2021/03/14 09:50:57;;;;;;;46.10;4.68;;;7.50;99.90;;;;;;5016829;28;20032;-83
2021/03/14 09:53:26;;;;;;;44.05;5.25;;;7.40;99.90;;;;;;5017037;28;20025;-83
2021/03/14 09:55:53;;;;;;;38.60;4.65;;;7.30;99.90;;;;;;5033738;28;20696;-82
2021/03/14 09:58:21;;;;;;;50.78;6.38;;;7.20;99.90;;;;;;5034474;28;20040;-83
2021/03/14 10:00:49;;;;;;;44.58;6.45;;;7.20;99.90;;;;;;5034322;28;20103;-82
2021/03/14 10:03:22;;;;;;;29.10;4.80;;;7.20;99.90;;;;;;5034289;28;20025;-82
2021/03/14 10:05:49;;;;;;;49.45;5.63;;;7.30;99.90;;;;;;5016007;28;20367;-82
2021/03/14 10:08:24;;;;;;;36.10;4.25;;;7.40;99.90;;;;;;5034213;28;20104;-81
2021/03/14 10:11:05;;;;;;;43.78;4.97;;;7.60;99.90;;;;;;5038099;28;20017;-83
2021/03/14 10:13:35;;;;;;;48.83;6.43;;;7.80;99.90;;;;;;5044001;28;20047;-82
2021/03/14 10:16:05;;;;;;;29.65;3.92;;;7.80;99.90;;;;;;5053501;28;20045;-82
2021/03/14 10:18:31;;;;;;;34.22;5.03;;;7.80;99.90;;;;;;5053683;28;20100;-82
2021/03/14 10:21:20;;;;;;;38.45;6.55;;;7.60;99.90;;;;;;5053890;28;20445;-83
2021/03/14 10:23:47;;;;;;;39.08;4.55;;;7.50;99.90;;;;;;5053318;28;20028;-83
2021/03/14 10:26:15;;;;;;;32.58;4.47;;;7.50;99.90;;;;;;5053797;28;20028;-83
2021/03/14 10:28:44;;;;;;;38.33;4.78;;;7.70;99.90;;;;;;5035943;28;20025;-83
2021/03/14 10:31:10;;;;;;;37.63;4.70;;;7.70;99.90;;;;;;5052298;28;20017;-82
2021/03/14 10:33:38;;;;;;;43.30;5.05;;;7.60;99.90;;;;;;5035680;28;20071;-82
2021/03/14 10:36:06;;;;;;;48.35;5.90;;;7.60;99.90;;;;;;5053312;28;20029;-82
2021/03/14 10:38:38;;;;;;;49.53;6.28;;;7.70;99.90;;;;;;5035806;28;20079;-82
2021/03/14 10:41:16;;;;;;;20.15;3.28;;;7.70;99.90;;;;;;5053464;28;20029;-82
2021/03/14 10:43:56;;;;;;;28.15;4.03;;;7.80;99.90;;;;;;5052953;28;20085;-80
2021/03/14 10:46:35;;;;;;;28.65;3.28;;;7.90;99.90;;;;;;5053513;28;20017;-80
2021/03/14 10:49:12;;;;;;;32.42;4.03;;;7.90;99.90;;;;;;5053274;28;20029;-80
2021/03/14 10:51:39;;;;;;;21.67;4.88;;;7.90;99.90;;;;;;5053499;28;20025;-81
2021/03/14 10:54:07;;;;;;;26.13;4.53;;;7.80;99.90;;;;;;5034695;28;20057;-82
2021/03/14 10:56:35;;;;;;;43.80;6.10;;;7.90;99.90;;;;;;5035834;28;20028;-82
2021/03/14 10:59:02;;;;;;;38.08;4.00;;;7.80;99.90;;;;;;5035343;28;20033;-82
2021/03/14 11:01:36;;;;;;;26.23;3.38;;;7.80;99.90;;;;;;5035326;28;20029;-82
2021/03/14 11:04:06;;;;;;;30.67;4.15;;;7.80;99.90;;;;;;5034667;28;20043;-82
2021/03/14 11:06:32;;;;;;;34.70;4.45;;;7.70;99.90;;;;;;5035022;28;20416;-82
2021/03/14 11:09:02;;;;;;;29.67;4.20;;;7.70;99.90;;;;;;5053089;28;20029;-81
2021/03/14 11:11:39;;;;;;;32.15;4.13;;;8.00;99.90;;;;;;5035104;28;20056;-81
2021/03/14 11:14:29;;;;;;;31.58;4.75;;;8.10;99.90;;;;;;5052362;28;20027;-82
2021/03/14 11:17:18;;;;;;;29.73;4.35;;;8.00;99.90;;;;;;5034911;28;20109;-81
2021/03/14 11:19:48;;;;;;;37.20;4.57;;;7.60;99.90;;;;;;5052747;28;20021;-82
2021/03/14 11:22:17;;;;;;;25.25;4.40;;;7.40;99.90;;;;;;5052876;28;20043;-80
2021/03/14 11:24:45;;;;;;;49.78;4.97;;;7.40;99.90;;;;;;5052184;28;20497;-81
2021/03/14 11:27:11;;;;;;;51.20;4.55;;;7.40;99.90;;;;;;5052731;28;20108;-83
2021/03/14 11:29:37;;;;;;;32.60;4.57;;;7.50;99.90;;;;;;5052424;28;20448;-83
2021/03/14 11:32:04;;;;;;;30.27;3.83;;;7.60;99.90;;;;;;5034838;28;20025;-83
2021/03/14 11:34:29;;;;;;;54.88;4.90;;;7.80;99.90;;;;;;5034056;28;20115;-82
2021/03/14 11:36:55;;;;;;;30.55;4.85;;;7.90;99.90;;;;;;5047970;28;20100;-80
2021/03/14 11:39:21;;;;;;;43.55;4.68;;;7.70;99.90;;;;;;5049719;28;20025;-81
2021/03/14 11:41:47;;;;;;;32.13;4.57;;;7.60;99.90;;;;;;5032475;28;20021;-81
2021/03/14 11:44:14;;;;;;;34.60;5.45;;;7.70;99.90;;;;;;5051552;28;20107;-81
2021/03/14 11:46:40;;;;;;;47.35;3.70;;;7.60;99.90;;;;;;5052262;28;20032;-80
2021/03/14 11:49:06;;;;;;;18.10;2.95;;;7.60;99.90;;;;;;5051352;28;20021;-80
2021/03/14 11:51:32;;;;;;;17.10;2.85;;;7.90;99.90;;;;;;5033894;28;20025;-80
2021/03/14 11:53:59;;;;;;;23.70;3.88;;;8.30;99.90;;;;;;5051536;28;20392;-81
2021/03/14 11:56:26;;;;;;;26.63;2.92;;;8.30;99.90;;;;;;5052229;28;20031;-80
2021/03/14 11:58:52;;;;;;;29.17;4.15;;;8.60;99.90;;;;;;5034443;28;20171;-82
2021/03/14 12:01:18;;;;;;;27.00;4.00;;;9.10;99.90;;;;;;5034184;28;20104;-81
2021/03/14 12:03:45;;;;;;;35.03;4.32;;;9.00;99.90;;;;;;5051434;28;20102;-80
2021/03/14 12:06:14;;;;;;;27.08;3.72;;;9.00;99.90;;;;;;5051913;28;20079;-80
2021/03/14 12:08:39;;;;;;;25.00;4.47;;;9.40;99.90;;;;;;5034109;28;20075;-80
2021/03/14 12:11:06;;;;;;;32.50;3.35;;;10.10;99.90;;;;;;5051737;28;20033;-81
2021/03/14 12:13:36;;;;;;;33.47;4.78;;;10.50;99.90;;;;;;5051901;28;20024;-80
2021/03/14 12:16:03;;;;;;;32.85;4.45;;;10.00;99.90;;;;;;5051323;28;20052;-81
2021/03/14 12:18:30;;;;;;;18.85;3.25;;;9.40;99.90;;;;;;5051658;28;20512;-79
2021/03/14 12:20:56;;;;;;;29.27;3.63;;;9.00;99.90;;;;;;5047544;28;20033;-80
2021/03/14 12:23:22;;;;;;;21.98;3.92;;;8.60;99.90;;;;;;5051894;28;20392;-79
2021/03/14 12:25:48;;;;;;;33.25;3.97;;;8.40;99.90;;;;;;5051578;28;20104;-79
2021/03/14 12:28:13;;;;;;;27.45;4.85;;;8.60;99.90;;;;;;5048597;28;20504;-79
2021/03/14 12:30:39;;;;;;;28.00;4.13;;;8.60;99.90;;;;;;5048531;28;20025;-79
2021/03/14 12:33:05;;;;;;;24.50;3.25;;;8.50;99.90;;;;;;5046981;28;20493;-79
2021/03/14 12:35:30;;;;;;;24.33;3.30;;;8.20;99.90;;;;;;5048030;28;20075;-79
2021/03/14 12:37:56;;;;;;;21.00;4.57;;;8.10;99.90;;;;;;5044905;28;20112;-79
2021/03/14 12:40:22;;;;;;;27.38;3.40;;;7.80;99.90;;;;;;5048022;28;20052;-79
2021/03/14 12:42:47;;;;;;;27.45;3.75;;;7.80;99.90;;;;;;5048195;28;20028;-80
2021/03/14 12:45:14;;;;;;;25.98;3.90;;;7.70;99.90;;;;;;5047368;28;20063;-80
2021/03/14 12:47:40;;;;;;;30.77;4.75;;;7.60;99.90;;;;;;5048116;28;20493;-80
2021/03/14 12:50:07;;;;;;;33.63;4.30;;;7.50;99.90;;;;;;5047850;28;20033;-79
2021/03/14 12:52:33;;;;;;;23.38;3.90;;;7.50;99.90;;;;;;5047736;28;20380;-79